Time;durP1;ratioP1;P1;durP2;ratioP2;P2;SDS_P1;SDS_P2;PMS_P1;PMS_P2;Temp;Humidity;BMP_temperature;BMP_pressure;BME280_temperature;BME280_humidity;BME280_pressure;Samples;Min_cycle;Max_cycle;Signal;HPM_P1;HPM_P2
2020/12/01 00:00:16;;;;;;;4.78;1.42;;;;;;;16.60;66.27;101371.53;4812963;29;20034;-78
2020/12/01 00:02:41;;;;;;;3.72;1.80;;;;;;;16.62;66.11;101362.00;4827817;29;20396;-78
2020/12/01 00:05:07;;;;;;;4.18;1.40;;;;;;;16.60;66.09;101361.16;4827535;29;20033;-78
2020/12/01 00:07:33;;;;;;;3.63;1.48;;;;;;;16.62;66.33;101364.63;4843748;29;20369;-78
2020/12/01 00:09:58;;;;;;;4.20;1.77;;;;;;;16.58;65.95;101370.66;4833875;29;20477;-78
2020/12/01 00:12:23;;;;;;;2.38;1.38;;;;;;;16.61;66.03;101369.78;4827292;29;20065;-78
2020/12/01 00:14:49;;;;;;;3.47;1.27;;;;;;;16.61;65.66;101378.50;4821658;29;20034;-78
2020/12/01 00:17:14;;;;;;;3.15;1.10;;;;;;;16.58;65.75;101370.66;4796984;29;20485;-78
2020/12/01 00:19:39;;;;;;;2.88;1.45;;;;;;;16.59;66.04;101380.22;4796370;29;20030;-78
2020/12/01 00:22:05;;;;;;;3.78;1.70;;;;;;;16.62;66.31;101375.00;4811997;29;20042;-78
2020/12/01 00:24:30;;;;;;;2.63;1.20;;;;;;;16.61;66.28;101380.19;4811886;29;20037;-79
2020/12/01 00:26:56;;;;;;;3.05;1.30;;;;;;;16.62;66.49;101375.00;4796665;29;20503;-78
2020/12/01 00:29:21;;;;;;;4.10;1.63;;;;;;;16.60;66.08;101375.88;4826931;29;20034;-78
2020/12/01 00:31:49;;;;;;;3.92;1.40;;;;;;;16.59;66.11;101375.00;4811623;29;20063;-78
2020/12/01 00:34:16;;;;;;;3.05;1.38;;;;;;;16.61;66.24;101382.78;4842135;29;20481;-78
2020/12/01 00:36:41;;;;;;;5.50;1.45;;;;;;;16.60;65.84;101384.53;4826610;29;20058;-78
2020/12/01 00:39:08;;;;;;;3.58;1.38;;;;;;;16.61;65.78;101373.28;4797057;29;20041;-78
2020/12/01 00:41:35;;;;;;;2.92;1.30;;;;;;;16.59;65.98;101382.81;4851116;29;20089;-78
2020/12/01 00:44:00;;;;;;;2.80;1.30;;;;;;;16.61;66.12;101388.88;4842868;29;20116;-78
2020/12/01 00:46:27;;;;;;;2.47;1.20;;;;;;;16.59;65.74;101377.63;4826875;29;20441;-78
2020/12/01 00:48:52;;;;;;;3.00;1.20;;;;;;;16.60;65.94;101383.66;4826979;29;20034;-78
2020/12/01 00:51:18;;;;;;;3.10;1.48;;;;;;;16.60;66.06;101373.28;4811445;29;20397;-78
2020/12/01 00:53:44;;;;;;;2.83;1.23;;;;;;;16.56;66.23;101374.13;4826987;29;20037;-78
2020/12/01 00:56:09;;;;;;;3.05;1.30;;;;;;;16.59;65.79;101368.94;4830431;29;20473;-78
2020/12/01 00:58:35;;;;;;;2.95;1.40;;;;;;;16.59;66.10;101369.81;4801003;29;20385;-79
2020/12/01 01:01:00;;;;;;;3.25;1.40;;;;;;;16.59;65.44;101375.00;4818119;29;20429;-78
2020/12/01 01:03:26;;;;;;;2.17;1.05;;;;;;;16.55;65.77;101365.47;4826924;29;20034;-79
2020/12/01 01:05:51;;;;;;;3.05;1.45;;;;;;;16.56;66.01;101367.19;4826653;29;20366;-78
2020/12/01 01:08:16;;;;;;;4.03;1.38;;;;;;;16.55;66.12;101368.06;4841631;29;20128;-78
2020/12/01 01:10:42;;;;;;;2.58;1.10;;;;;;;16.58;66.05;101368.06;4826731;29;20061;-78
2020/12/01 01:13:07;;;;;;;2.70;1.33;;;;;;;16.57;65.63;101370.66;4815384;29;20093;-78
2020/12/01 01:15:34;;;;;;;3.78;1.40;;;;;;;16.58;65.70;101372.41;4826476;29;20113;-78
2020/12/01 01:18:01;;;;;;;3.67;1.30;;;;;;;16.58;65.47;101367.19;4811453;29;20038;-78
2020/12/01 01:20:27;;;;;;;2.50;1.10;;;;;;;16.56;65.95;101367.19;4796273;29;20066;-78
2020/12/01 01:22:53;;;;;;;2.72;1.30;;;;;;;16.58;66.04;101368.06;4816109;29;20052;-78
2020/12/01 01:25:19;;;;;;;3.53;1.10;;;;;;;16.56;65.66;101366.31;4841500;29;20022;-79
2020/12/01 01:27:45;;;;;;;4.03;1.50;;;;;;;16.59;65.57;101369.81;4811334;29;20098;-78
2020/12/01 01:30:13;;;;;;;1.73;0.90;;;;;;;16.58;65.67;101373.25;4826418;29;20458;-79
2020/12/01 01:32:38;;;;;;;3.85;1.30;;;;;;;16.58;65.61;101375.84;4829821;29;20049;-78
2020/12/01 01:35:04;;;;;;;1.73;0.85;;;;;;;16.56;65.34;101369.78;4845144;29;20046;-79
2020/12/01 01:37:29;;;;;;;2.60;1.10;;;;;;;16.54;65.86;101368.06;4846472;29;20041;-78
2020/12/01 01:39:54;;;;;;;3.88;1.30;;;;;;;16.56;65.70;101374.97;4814753;29;20022;-78
2020/12/01 01:42:20;;;;;;;2.88;1.10;;;;;;;16.56;65.89;101367.19;4819536;29;20052;-79
2020/12/01 01:44:45;;;;;;;3.10;1.23;;;;;;;16.56;65.66;101376.72;4814846;29;20034;-78
2020/12/01 01:47:28;;;;;;;3.30;1.10;;;;;;;16.58;65.72;101375.84;4821363;29;20034;-78
2020/12/01 01:49:58;;;;;;;2.75;1.00;;;;;;;16.57;65.61;101375.84;4811417;29;20050;-78
2020/12/01 01:52:28;;;;;;;2.50;1.08;;;;;;;16.60;65.56;101378.47;4811563;29;20113;-79
2020/12/01 01:54:59;;;;;;;2.30;1.00;;;;;;;16.58;65.15;101375.84;4834985;29;20042;-78
2020/12/01 01:57:28;;;;;;;2.47;1.10;;;;;;;16.60;65.28;101370.69;4829485;29;20026;-79
2020/12/01 01:59:54;;;;;;;3.88;1.02;;;;;;;16.58;65.48;101375.84;4834360;29;20030;-79
2020/12/01 02:02:19;;;;;;;2.00;0.90;;;;;;;16.58;65.24;101372.41;4829357;29;20045;-79
2020/12/01 02:04:44;;;;;;;2.63;1.10;;;;;;;16.57;65.04;101375.84;4817225;29;20381;-79
2020/12/01 02:07:10;;;;;;;2.03;1.00;;;;;;;16.56;65.09;101379.31;4814524;29;20034;-78
2020/12/01 02:09:57;;;;;;;2.55;0.98;;;;;;;16.58;65.55;101375.84;4818691;29;20037;-78
2020/12/01 02:12:23;;;;;;;1.73;0.88;;;;;;;16.56;65.53;101379.31;4847790;29;20037;-78
2020/12/01 02:14:55;;;;;;;2.33;0.90;;;;;;;16.56;65.70;101372.38;4832180;29;20034;-79
2020/12/01 02:17:23;;;;;;;2.58;1.02;;;;;;;16.58;64.99;101378.47;4846998;29;20433;-78
2020/12/01 02:19:50;;;;;;;3.42;0.80;;;;;;;16.56;65.32;101377.59;4844773;29;20438;-78
2020/12/01 02:22:20;;;;;;;2.22;0.75;;;;;;;16.55;65.42;101368.06;4829621;29;20030;-78
2020/12/01 02:24:46;;;;;;;2.22;0.98;;;;;;;16.58;65.41;101372.41;4845130;29;20166;-78
2020/12/01 02:27:15;;;;;;;2.92;1.23;;;;;;;16.56;65.00;101372.38;4829464;29;20086;-78
2020/12/01 02:29:44;;;;;;;1.95;1.15;;;;;;;16.58;65.49;101377.59;4829159;29;20546;-78
2020/12/01 02:32:10;;;;;;;1.77;0.90;;;;;;;16.54;65.31;101368.91;4828844;29;20545;-78
2020/12/01 02:34:40;;;;;;;2.42;0.90;;;;;;;16.56;64.77;101372.38;4814178;29;20037;-78
2020/12/01 02:37:07;;;;;;;3.17;0.90;;;;;;;16.56;64.83;101374.97;4829017;29;20528;-78
2020/12/01 02:39:33;;;;;;;1.85;0.93;;;;;;;16.54;65.51;101366.31;4836313;29;20140;-78
2020/12/01 02:42:03;;;;;;;4.05;1.02;;;;;;;16.56;65.23;101364.59;4831025;29;20090;-78
2020/12/01 02:44:29;;;;;;;2.63;1.10;;;;;;;16.56;65.00;101366.31;4846366;29;20061;-78
2020/12/01 02:47:01;;;;;;;2.78;0.88;;;;;;;16.56;65.23;101364.59;4850565;29;20101;-78
2020/12/01 02:49:26;;;;;;;3.80;0.98;;;;;;;16.56;64.66;101361.13;4837596;29;20039;-78
2020/12/01 02:51:52;;;;;;;2.13;0.90;;;;;;;16.56;65.32;101368.94;4822126;29;20090;-78
2020/12/01 02:54:17;;;;;;;2.38;0.73;;;;;;;16.56;64.96;101351.59;4803625;29;20042;-78
2020/12/01 02:56:45;;;;;;;2.15;0.80;;;;;;;16.54;64.53;101344.66;4813592;29;20034;-78
2020/12/01 02:59:11;;;;;;;2.47;0.95;;;;;;;16.55;65.15;101352.47;4799318;29;20094;-78
2020/12/01 03:01:36;;;;;;;1.80;0.90;;;;;;;16.58;64.71;101344.69;4840802;29;20533;-79
2020/12/01 03:04:02;;;;;;;2.22;0.90;;;;;;;16.55;64.76;101333.41;4829587;29;20040;-78
2020/12/01 03:06:27;;;;;;;2.38;0.90;;;;;;;16.55;65.28;101344.69;4831361;29;20029;-79
2020/12/01 03:08:53;;;;;;;2.17;0.90;;;;;;;16.55;65.34;101338.59;4831487;29;20366;-78
2020/12/01 03:11:18;;;;;;;2.83;0.80;;;;;;;16.54;65.09;101324.75;4844719;29;20037;-79
2020/12/01 03:13:44;;;;;;;1.73;0.70;;;;;;;16.57;65.29;101329.06;4813000;29;20481;-79
2020/12/01 03:16:10;;;;;;;2.55;1.00;;;;;;;16.55;64.79;101325.59;4828504;29;20038;-79
2020/12/01 03:18:37;;;;;;;1.95;1.00;;;;;;;16.55;64.76;101330.81;4834929;29;20565;-79
2020/12/01 03:21:04;;;;;;;2.30;0.90;;;;;;;16.52;65.00;101334.25;4862924;29;20034;-79
2020/12/01 03:23:30;;;;;;;1.85;0.80;;;;;;;16.55;64.71;101330.81;4846559;29;20509;-78
2020/12/01 03:25:55;;;;;;;2.50;0.80;;;;;;;16.55;64.58;101325.59;4838463;29;20042;-79
2020/12/01 03:28:21;;;;;;;2.00;1.05;;;;;;;16.56;64.94;101342.94;4815675;29;20056;-79
2020/12/01 03:30:46;;;;;;;1.48;0.70;;;;;;;16.56;64.69;101330.81;4821749;29;20449;-79
2020/12/01 03:33:12;;;;;;;2.88;0.88;;;;;;;16.55;65.01;101334.28;4826453;29;20090;-79
2020/12/01 03:35:37;;;;;;;2.72;1.10;;;;;;;16.56;64.68;101333.41;4803451;29;20512;-79
2020/12/01 03:38:03;;;;;;;2.83;1.10;;;;;;;16.54;64.76;101345.53;4812505;29;20049;-79
2020/12/01 03:40:28;;;;;;;3.17;0.90;;;;;;;16.56;64.67;101346.41;4842910;29;20064;-79
2020/12/01 03:42:54;;;;;;;2.05;1.00;;;;;;;16.53;64.73;101356.81;4827762;29;20453;-79
2020/12/01 03:45:19;;;;;;;2.13;0.93;;;;;;;16.55;64.61;101349.88;4827299;29;20093;-77
2020/12/01 03:47:45;;;;;;;3.50;0.95;;;;;;;16.55;64.66;101351.59;4827416;29;20030;-79
2020/12/01 03:50:12;;;;;;;1.70;0.75;;;;;;;16.56;64.51;101353.34;4812326;29;20070;-79
2020/12/01 03:52:38;;;;;;;2.85;0.90;;;;;;;16.56;64.35;101364.59;4827261;29;20050;-79
2020/12/01 03:55:04;;;;;;;2.70;0.93;;;;;;;16.55;64.75;101364.56;4796951;29;20038;-79
2020/12/01 03:57:40;;;;;;;1.65;0.70;;;;;;;16.55;64.63;101373.25;4827282;29;20034;-79
2020/12/01 04:00:05;;;;;;;2.67;0.88;;;;;;;16.53;64.47;101367.19;4839067;29;20057;-79
2020/12/01 04:02:31;;;;;;;2.22;0.90;;;;;;;16.54;64.49;101374.09;4812607;29;20614;-78
2020/12/01 04:04:56;;;;;;;2.28;1.08;;;;;;;16.54;64.43;101375.84;4820247;29;20070;-79
2020/12/01 04:07:23;;;;;;;2.17;0.88;;;;;;;16.55;64.38;101385.38;4811974;29;20038;-79
2020/12/01 04:09:48;;;;;;;2.30;1.10;;;;;;;16.54;64.53;101374.09;4827347;29;20057;-79
2020/12/01 04:12:14;;;;;;;1.85;1.20;;;;;;;16.55;64.41;101382.75;4797101;29;20057;-79
2020/12/01 04:14:42;;;;;;;2.22;1.00;;;;;;;16.56;64.32;101379.31;4796762;29;20038;-79
2020/12/01 04:17:07;;;;;;;3.60;1.10;;;;;;;16.55;64.46;101390.56;4797108;29;20117;-79
2020/12/01 04:19:32;;;;;;;4.85;1.05;;;;;;;16.56;64.51;101381.91;4827100;29;20133;-79
2020/12/01 04:21:58;;;;;;;3.15;1.13;;;;;;;16.56;64.20;101393.16;4813119;29;20029;-79
2020/12/01 04:24:23;;;;;;;2.35;0.90;;;;;;;16.55;64.50;101391.44;4830045;29;20065;-79
2020/12/01 04:26:48;;;;;;;2.25;0.98;;;;;;;16.56;64.40;101406.16;4830339;29;20037;-79
2020/12/01 04:29:14;;;;;;;1.85;0.80;;;;;;;16.56;64.28;101408.75;4842880;29;20036;-79
2020/12/01 04:31:39;;;;;;;2.55;1.00;;;;;;;16.56;63.71;101406.16;4814393;29;20114;-79
2020/12/01 04:34:05;;;;;;;4.03;1.15;;;;;;;16.55;64.41;101409.63;4801521;29;20533;-79
2020/12/01 04:36:30;;;;;;;2.70;0.90;;;;;;;16.55;64.18;101411.34;4802929;29;20056;-79
2020/12/01 04:38:55;;;;;;;1.98;0.85;;;;;;;16.54;64.25;101402.69;4819867;29;20074;-79
2020/12/01 04:41:21;;;;;;;3.10;1.20;;;;;;;16.54;64.17;101423.47;4848931;29;20049;-79
2020/12/01 04:43:55;;;;;;;3.65;1.20;;;;;;;16.55;64.17;101412.25;4802759;29;20046;-79
2020/12/01 04:46:25;;;;;;;2.00;0.98;;;;;;;16.54;64.02;101420.00;4843536;29;20029;-79
2020/12/01 04:49:05;;;;;;;2.20;0.98;;;;;;;16.54;64.18;101427.81;4843502;29;20500;-79
2020/12/01 04:52:12;;;;;;;2.30;1.00;;;;;;;16.54;64.03;101441.66;4827868;29;20124;-79
2020/12/01 04:55:32;;;;;;;2.53;0.80;;;;;;;16.56;64.28;101439.94;4789000;29;20048;-79
2020/12/01 04:58:39;;;;;;;3.40;0.90;;;;;;;16.56;64.27;101439.94;4834205;29;20038;-78
2020/12/01 05:01:13;;;;;;;3.00;1.20;;;;;;;16.56;64.13;101442.53;4809158;29;20038;-79
2020/12/01 05:04:03;;;;;;;2.50;0.88;;;;;;;16.60;64.30;101446.88;4841746;29;20038;-79
2020/12/01 05:07:05;;;;;;;2.88;0.95;;;;;;;16.60;64.40;101439.09;4842708;29;20045;-79
2020/12/01 05:09:44;;;;;;;2.10;0.90;;;;;;;16.60;64.07;101438.22;4842768;29;20044;-79
2020/12/01 05:12:25;;;;;;;2.63;1.00;;;;;;;16.61;64.33;101460.75;4841946;29;20025;-79
2020/12/01 05:14:56;;;;;;;2.30;0.90;;;;;;;16.60;64.44;101462.47;4828807;29;20069;-79
2020/12/01 05:17:50;;;;;;;3.28;1.00;;;;;;;16.60;63.99;101466.81;4841957;29;20414;-79
2020/12/01 05:20:15;;;;;;;2.08;0.80;;;;;;;16.62;64.17;101478.94;4841951;29;20034;-78
2020/12/01 05:22:50;;;;;;;2.85;1.00;;;;;;;16.61;64.10;101477.22;4811385;29;20049;-79
2020/12/01 05:25:24;;;;;;;2.80;1.10;;;;;;;16.61;63.87;101477.22;4842546;29;20072;-79
2020/12/01 05:28:00;;;;;;;2.95;1.00;;;;;;;16.63;63.85;101482.41;4826443;29;20029;-79
2020/12/01 05:30:26;;;;;;;2.22;0.90;;;;;;;16.64;63.87;101502.34;4818886;29;20508;-79
2020/12/01 05:32:59;;;;;;;2.70;0.88;;;;;;;16.63;63.81;101495.41;4796299;29;20042;-79
2020/12/01 05:35:26;;;;;;;2.83;1.00;;;;;;;16.63;63.68;101506.66;4842346;29;20111;-79
2020/12/01 05:38:00;;;;;;;2.22;0.90;;;;;;;16.65;64.04;101511.88;4847484;29;20037;-79
2020/12/01 05:40:28;;;;;;;3.28;1.00;;;;;;;16.63;63.55;101511.84;4826108;29;20034;-78
2020/12/01 05:42:57;;;;;;;2.50;1.00;;;;;;;16.65;63.65;101517.06;4825922;29;20030;-78
2020/12/01 05:45:26;;;;;;;3.30;0.95;;;;;;;16.64;63.68;101517.94;4826543;29;20030;-78
2020/12/01 05:48:02;;;;;;;3.20;1.13;;;;;;;16.64;63.75;101529.19;4825991;29;20034;-79
2020/12/01 05:50:30;;;;;;;2.58;1.15;;;;;;;16.64;63.32;101530.94;4842169;29;20040;-79
2020/12/01 05:53:04;;;;;;;3.92;1.10;;;;;;;16.64;63.60;101533.53;4810875;29;20046;-78
2020/12/01 05:55:31;;;;;;;2.72;0.98;;;;;;;16.63;63.40;101524.84;4826688;29;20026;-78
2020/12/01 05:58:14;;;;;;;2.65;0.90;;;;;;;16.63;63.62;101543.03;4841226;29;20045;-80
2020/12/01 06:00:42;;;;;;;3.08;1.10;;;;;;;16.64;63.22;101539.59;4842153;29;20034;-79
2020/12/01 06:03:34;;;;;;;5.50;1.88;;;;;;;16.62;63.05;101541.31;4842304;29;20034;-79
2020/12/01 06:06:01;;;;;;;6.78;2.42;;;;;;;16.64;63.22;101556.94;4841566;29;20091;-80
2020/12/01 06:09:04;;;;;;;6.93;2.38;;;;;;;16.63;63.12;101553.44;4812807;29;20040;-79
2020/12/01 06:11:56;;;;;;;11.05;2.65;;;;;;;16.64;63.36;101560.38;4848532;29;20042;-81
2020/12/01 06:18:10;;;;;;;7.40;2.55;;;;;;;16.65;63.39;101572.50;4844638;29;20121;-80
2020/12/01 06:20:50;;;;;;;7.70;2.70;;;;;;;16.63;63.05;101574.22;4859039;29;20029;-81
2020/12/01 06:23:40;;;;;;;8.48;2.85;;;;;;;16.64;63.16;101588.97;4829800;29;20129;-80
2020/12/01 06:26:44;;;;;;;9.68;2.78;;;;;;;16.63;63.10;101592.41;4829165;29;20034;-80
2020/12/01 06:29:48;;;;;;;6.70;2.22;;;;;;;16.63;63.14;101597.59;4845935;29;20033;-80
2020/12/01 06:32:16;;;;;;;;;;;;;;;16.62;62.74;101606.28;4840202;29;20036;-81
2020/12/01 06:34:58;;;;;;;6.78;2.20;;;;;;;16.65;63.03;101618.41;4843366;29;19965;-80
2020/12/01 06:37:35;;;;;;;8.40;2.58;;;;;;;16.63;62.71;101601.94;4846523;29;20062;-80
2020/12/01 06:40:00;;;;;;;8.75;2.67;;;;;;;16.64;63.05;101614.97;4846205;29;20075;-80
2020/12/01 06:42:45;;;;;;;8.27;2.63;;;;;;;16.65;63.04;101619.28;4846257;29;20053;-80
2020/12/01 06:45:44;;;;;;;8.18;2.80;;;;;;;16.65;62.80;101613.22;4834321;29;20036;-80
2020/12/01 06:48:19;;;;;;;6.60;2.45;;;;;;;16.63;63.28;101626.19;4829144;29;20052;-80
2020/12/01 06:50:50;;;;;;;6.72;2.55;;;;;;;16.64;62.97;101633.16;4845991;29;20030;-80
2020/12/01 06:53:31;;;;;;;5.93;2.42;;;;;;;16.66;62.85;101633.16;4845554;29;20034;-81
2020/12/01 06:55:58;;;;;;;6.25;2.15;;;;;;;16.64;62.97;101638.34;4848949;29;20063;-81
2020/12/01 06:58:27;;;;;;;7.85;2.47;;;;;;;16.64;62.74;101647.88;4834753;29;20090;-81
2020/12/01 07:01:24;;;;;;;8.50;2.95;;;;;;;16.66;62.61;101654.81;4831277;29;20517;-80
2020/12/01 07:04:00;;;;;;;6.88;2.25;;;;;;;16.63;62.70;101652.19;4830739;29;20065;-80
2020/12/01 07:06:25;;;;;;;7.20;2.17;;;;;;;16.65;62.91;101654.81;4846699;29;20070;-80
2020/12/01 07:08:51;;;;;;;6.28;2.35;;;;;;;16.67;62.86;101653.09;4843731;29;20435;-80
2020/12/01 07:11:32;;;;;;;6.47;2.38;;;;;;;16.68;62.74;101660.03;4828477;29;20033;-80
2020/12/01 07:14:12;;;;;;;7.15;2.53;;;;;;;16.69;62.51;101663.50;4844033;29;20496;-80
2020/12/01 07:16:44;;;;;;;5.93;2.10;;;;;;;16.70;62.78;101660.03;4834052;29;20021;-80
2020/12/01 07:19:35;;;;;;;4.07;2.03;;;;;;;16.72;62.49;101668.72;4841364;29;20042;-80
2020/12/01 07:22:17;;;;;;;5.32;1.90;;;;;;;16.71;62.46;101672.19;4843271;29;20084;-80
2020/12/01 07:24:51;;;;;;;7.47;2.10;;;;;;;16.71;62.40;101673.03;4825369;29;20059;-80
2020/12/01 07:27:46;;;;;;;6.97;2.30;;;;;;;16.71;62.56;101670.44;4824275;29;20041;-80
2020/12/01 07:30:25;;;;;;;6.95;2.03;;;;;;;16.74;62.47;101690.38;4835152;29;20033;-80
2020/12/01 07:32:56;;;;;;;7.03;1.90;;;;;;;16.74;62.33;101695.59;4842204;29;20029;-80
2020/12/01 07:38:48;;;;;;;5.45;1.98;;;;;;;16.72;62.24;101686.91;4849316;29;20102;-81
2020/12/01 08:53:24;;;;;;;3.28;1.38;;;;;;;16.94;61.29;101795.44;4828642;29;20068;-82
2020/12/01 09:47:25;;;;;;;2.80;1.50;;;;;;;17.13;60.05;101860.59;1272059;27;20080;-81
2020/12/01 09:51:17;;;;;;;3.83;1.30;;;;;;;17.14;60.00;101858.03;4736642;30;20037;-81
2020/12/01 12:01:22;;;;;;;1.77;0.70;;;;;;;17.52;57.88;101930.31;4810902;29;20049;-80
2020/12/01 12:11:40;;;;;;;1.80;0.90;;;;;;;17.47;58.36;101921.59;5134628;24;20162;-81
2020/12/01 12:14:07;;;;;;;1.42;0.70;;;;;;;17.45;57.98;101923.31;4834548;29;20053;-81
2020/12/01 12:16:33;;;;;;;2.30;1.00;;;;;;;17.44;58.00;101932.88;4825406;29;20047;-78
2020/12/01 12:18:59;;;;;;;1.40;0.70;;;;;;;17.46;58.21;101922.44;4828421;29;20030;-79
2020/12/01 12:21:25;;;;;;;2.20;0.95;;;;;;;17.46;58.16;101922.44;4810393;29;20064;-80
2020/12/01 12:23:50;;;;;;;5.20;0.80;;;;;;;17.47;58.06;101925.06;4809388;29;20030;-80
2020/12/01 12:26:16;;;;;;;2.08;0.80;;;;;;;17.47;57.82;101938.09;4838651;29;20037;-80
2020/12/01 12:28:42;;;;;;;2.72;1.05;;;;;;;17.47;57.93;101943.28;4833676;29;20042;-80
2020/12/01 12:31:17;;;;;;;1.95;0.90;;;;;;;17.46;58.35;101923.34;4827778;29;20030;-81
2020/12/01 12:33:43;;;;;;;2.88;1.00;;;;;;;17.47;58.25;101929.41;4828191;29;20030;-81
2020/12/01 12:46:30;;;;;;;5.53;1.30;;;;;;;17.45;57.83;101926.78;5321422;23;20058;-79
2020/12/01 12:48:55;;;;;;;3.80;0.90;;;;;;;17.45;58.03;101931.13;4806222;29;20060;-80
2020/12/01 12:57:27;;;;;;;2.53;0.98;;;;;;;17.45;57.91;101925.94;5337911;24;20055;-80
2020/12/01 12:59:52;;;;;;;4.03;1.20;;;;;;;17.43;57.68;101918.09;4798467;29;20045;-80
2020/12/01 13:02:17;;;;;;;3.75;1.10;;;;;;;17.45;57.61;101926.78;4795603;29;20394;-79
2020/12/01 13:04:43;;;;;;;3.22;1.00;;;;;;;17.46;57.80;101922.44;4795895;29;20038;-79
2020/12/01 13:07:08;;;;;;;3.28;1.20;;;;;;;17.47;57.87;101929.41;4778845;29;20031;-80
2020/12/01 13:09:34;;;;;;;2.67;1.10;;;;;;;17.47;57.55;101916.41;4790050;29;20103;-79
2020/12/01 13:11:59;;;;;;;5.20;1.30;;;;;;;17.49;57.94;101925.09;4790222;29;20070;-79
2020/12/01 13:14:25;;;;;;;4.57;1.10;;;;;;;17.47;58.04;101922.47;4764200;29;20117;-79
2020/12/01 13:16:52;;;;;;;3.90;1.13;;;;;;;17.47;57.63;101926.81;4792885;29;20039;-79
2020/12/01 13:19:18;;;;;;;2.90;0.95;;;;;;;17.46;57.59;101925.06;4808220;29;20023;-79
2020/12/01 13:21:44;;;;;;;3.42;1.10;;;;;;;17.46;57.59;101928.56;4793363;29;20121;-80
2020/12/01 13:24:10;;;;;;;2.35;1.00;;;;;;;17.44;57.70;101935.47;4795966;29;20566;-80
2020/12/01 13:26:35;;;;;;;4.93;1.10;;;;;;;17.45;58.28;101938.94;4807876;29;20030;-78
2020/12/01 13:29:01;;;;;;;2.88;1.00;;;;;;;17.44;57.69;101942.38;4793428;29;20496;-80
2020/12/01 13:31:26;;;;;;;2.70;0.88;;;;;;;17.44;57.90;101950.19;4808617;29;20046;-80
2020/12/01 13:33:52;;;;;;;4.32;1.23;;;;;;;17.42;57.86;101942.38;4777059;29;20038;-79
2020/12/01 13:36:22;;;;;;;3.50;1.10;;;;;;;17.42;57.75;101949.28;4792519;29;20034;-80
2020/12/01 13:38:47;;;;;;;3.95;0.85;;;;;;;17.41;57.71;101950.16;4807675;29;20034;-79
2020/12/01 13:41:13;;;;;;;2.63;1.10;;;;;;;17.41;57.81;101950.16;4789415;29;20031;-79
2020/12/01 13:43:39;;;;;;;4.25;1.30;;;;;;;17.39;57.70;101947.53;4800463;29;20042;-79
2020/12/01 13:46:04;;;;;;;2.63;1.02;;;;;;;17.40;57.83;101945.84;4810614;29;20045;-79
2020/12/01 13:48:29;;;;;;;3.28;1.20;;;;;;;17.39;57.57;101947.53;4810927;29;20087;-79
2020/12/01 13:50:57;;;;;;;6.47;1.08;;;;;;;17.39;57.87;101947.53;4806597;29;20386;-80
2020/12/01 13:53:23;;;;;;;3.65;1.20;;;;;;;17.38;57.54;101951.03;4788920;29;20041;-80
2020/12/01 13:55:48;;;;;;;4.03;0.88;;;;;;;17.38;57.72;101952.75;4774418;29;20034;-80
2020/12/01 13:58:14;;;;;;;2.63;1.00;;;;;;;17.39;57.56;101967.50;4815573;29;20517;-80
2020/12/01 14:00:39;;;;;;;5.68;1.08;;;;;;;17.38;57.64;101968.38;4777288;29;20429;-80
2020/12/01 14:03:04;;;;;;;5.28;1.23;;;;;;;17.38;57.48;101960.56;4822217;29;20481;-80
2020/12/01 14:05:32;;;;;;;2.35;1.08;;;;;;;17.36;57.49;101957.94;4822861;29;20018;-80
2020/12/01 14:08:01;;;;;;;3.45;1.10;;;;;;;17.38;57.34;101966.63;4801600;29;20041;-80
2020/12/01 14:10:26;;;;;;;2.38;1.05;;;;;;;17.39;57.32;101964.91;4811531;29;20039;-80
2020/12/01 14:12:52;;;;;;;3.03;1.10;;;;;;;17.39;57.45;101964.91;4808419;29;20037;-80
2020/12/01 14:15:18;;;;;;;2.03;0.90;;;;;;;17.42;57.35;101981.41;4792889;29;20031;-80
2020/12/01 14:17:46;;;;;;;2.30;1.02;;;;;;;17.41;57.49;101968.38;4816031;29;20045;-80
2020/12/01 14:20:16;;;;;;;2.38;1.00;;;;;;;17.46;57.48;101971.88;4830346;29;20029;-81
2020/12/01 14:22:42;;;;;;;3.30;1.38;;;;;;;17.56;57.80;101981.53;4827584;29;20034;-80
2020/12/01 14:25:26;;;;;;;3.35;1.10;;;;;;;17.69;57.66;101979.91;4812926;29;20040;-81
2020/12/01 14:27:52;;;;;;;5.57;1.13;;;;;;;17.73;57.65;101976.47;4812118;29;20053;-81
2020/12/01 14:30:20;;;;;;;4.18;1.25;;;;;;;17.78;57.88;101984.31;4825540;29;20044;-80
2020/12/01 14:32:45;;;;;;;3.90;1.00;;;;;;;17.79;57.63;101984.34;4810175;29;20067;-80
2020/12/01 14:35:14;;;;;;;5.90;1.15;;;;;;;17.81;57.67;101986.94;4793378;29;20035;-80
2020/12/01 14:37:40;;;;;;;11.10;1.17;;;;;;;17.82;57.40;101984.38;4808814;29;20124;-80
2020/12/01 14:40:07;;;;;;;4.10;1.15;;;;;;;17.83;57.37;101986.16;4795808;29;20450;-80
2020/12/01 14:42:32;;;;;;;3.55;1.38;;;;;;;17.83;57.38;101993.97;4828288;29;20053;-81
2020/12/01 14:44:57;;;;;;;4.18;1.20;;;;;;;17.84;57.11;101989.63;4811902;29;20478;-81
2020/12/01 14:48:01;;;;;;;3.13;0.98;;;;;;;17.85;57.21;102002.63;4786390;29;20039;-80
2020/12/01 14:50:35;;;;;;;6.55;1.13;;;;;;;17.85;57.27;102005.22;4808767;29;20031;-80
2020/12/01 14:53:15;;;;;;;4.13;0.90;;;;;;;17.84;57.18;101993.09;4809400;29;20482;-81
2020/12/01 14:55:40;;;;;;;4.30;0.88;;;;;;;17.86;57.39;101996.56;4811760;29;20049;-80
2020/12/01 14:58:24;;;;;;;3.30;1.20;;;;;;;17.85;57.20;101996.56;4811327;29;20054;-81
2020/12/01 15:00:57;;;;;;;4.30;1.10;;;;;;;17.85;57.55;102000.00;4811334;29;20082;-80
2020/12/01 15:03:45;;;;;;;3.80;0.90;;;;;;;17.86;57.09;101998.31;4811921;29;20061;-80
2020/12/01 15:06:19;;;;;;;3.78;1.13;;;;;;;17.83;57.33;101999.16;4811603;29;20041;-80
2020/12/01 15:09:00;;;;;;;3.78;0.95;;;;;;;17.85;57.08;102000.00;4811068;29;20042;-80
2020/12/01 15:11:38;;;;;;;5.35;1.00;;;;;;;17.85;57.09;101989.59;4811256;29;20051;-80
2020/12/01 15:14:03;;;;;;;2.70;1.00;;;;;;;17.85;56.95;101997.41;4819201;29;20062;-80
2020/12/01 15:16:32;;;;;;;4.28;0.98;;;;;;;17.85;56.82;102002.63;4781840;29;20119;-80
2020/12/01 15:18:58;;;;;;;3.88;1.00;;;;;;;17.86;56.67;102003.53;4827822;29;20106;-79
2020/12/01 15:21:43;;;;;;;2.58;1.00;;;;;;;17.87;57.03;102007.84;4822403;29;20037;-80
2020/12/01 15:24:20;;;;;;;2.92;0.93;;;;;;;17.85;56.91;102013.03;4810306;29;20038;-80
2020/12/01 15:26:46;;;;;;;3.67;0.90;;;;;;;17.87;56.99;102018.25;4810863;29;20430;-80
2020/12/01 15:29:12;;;;;;;2.85;0.80;;;;;;;17.89;57.04;102019.16;4790292;29;20058;-80
2020/12/01 15:31:38;;;;;;;4.53;1.13;;;;;;;17.87;56.89;102019.13;4790552;29;20058;-81
2020/12/01 15:34:05;;;;;;;1.95;0.80;;;;;;;17.87;56.98;102021.75;4827400;29;20026;-80
2020/12/01 15:36:36;;;;;;;3.05;1.02;;;;;;;17.91;56.61;102027.00;4813499;29;20113;-81
2020/12/01 15:39:03;;;;;;;2.00;0.80;;;;;;;17.91;56.70;102037.41;4815165;29;20045;-80
2020/12/01 15:41:28;;;;;;;2.78;1.00;;;;;;;17.90;56.95;102033.94;4812884;29;20026;-80
2020/12/01 15:43:54;;;;;;;2.90;0.90;;;;;;;17.91;56.76;102032.19;4803696;29;20049;-80
2020/12/01 15:46:26;;;;;;;3.47;0.98;;;;;;;17.91;56.56;102037.41;4812408;29;20467;-80
2020/12/01 15:48:52;;;;;;;3.08;0.95;;;;;;;17.91;56.70;102038.28;4817378;29;20045;-79
2020/12/01 15:51:43;;;;;;;2.85;0.82;;;;;;;17.90;56.42;102039.16;4829140;29;20038;-80
2020/12/01 15:54:30;;;;;;;1.77;0.82;;;;;;;17.92;56.62;102040.03;4796040;29;20038;-80
2020/12/01 15:56:55;;;;;;;2.03;0.85;;;;;;;17.92;56.87;102047.84;4831269;29;20026;-80
2020/12/01 16:00:00;;;;;;;2.05;0.90;;;;;;;17.94;56.90;102047.84;4835207;29;20069;-80
2020/12/01 16:02:44;;;;;;;2.40;0.90;;;;;;;17.94;56.99;102040.88;4826294;29;20083;-80
2020/12/01 16:05:31;;;;;;;2.72;0.88;;;;;;;17.98;57.35;102052.22;4829707;29;20038;-81
2020/12/01 16:08:27;;;;;;;3.75;0.95;;;;;;;17.97;57.13;102053.94;4824910;29;20034;-82
2020/12/01 16:11:20;;;;;;;4.28;1.20;;;;;;;17.98;57.88;102049.59;4822098;29;20049;-81
2020/12/01 16:14:07;;;;;;;9.10;1.77;;;;;;;17.99;58.04;102062.66;4810856;29;20042;-80
2020/12/01 16:16:52;;;;;;;7.47;1.98;;;;;;;17.99;59.39;102062.66;4823089;29;20042;-81
2020/12/01 16:38:48;;;;;;;3.95;1.23;;;;;;;17.99;58.49;102067.00;5372100;24;20057;-81
2020/12/01 16:41:37;;;;;;;3.67;1.20;;;;;;;18.00;58.86;102074.81;4865859;29;20033;-81
2020/12/01 16:50:50;;;;;;;4.55;1.30;;;;;;;17.99;58.78;102093.03;4915420;24;20065;-82